Minneapolis, Minnesota
Traffic Map
Current Weather Conditions
Minneapolis, Minnesota
Broken Clouds
Broken Clouds
13°
Feels Like: 13°
Wind Chill: 13° Ceiling: 4900
Heat Index: 13° Visibility: 10mi
Dew Point: Wind: 6mph
Humidity: 77% Direction: 170° (S)
Pressure: 29.96in Gusts: 0mph
Raw Report DataKMSP 171253Z 17005KT 10SM BKN049 BKN080 13/09 A2996 RMK AO2 SLP145 T01330094
Traffic Incident Summary
Active as of:
Severity:
Category:
InformationThere was an issue retrieving the traffic information for this location. Please try a different location or try again shortly.
Advertisements
Track Severe Weather on mobile